Time;durP1;ratioP1;P1;durP2;ratioP2;P2;SDS_P1;SDS_P2;PMS_P1;PMS_P2;Temp;Humidity;BMP_temperature;BMP_pressure;BME280_temperature;BME280_humidity;BME280_pressure;Samples;Min_cycle;Max_cycle;Signal;HPM_P1;HPM_P2
2021/11/19 00:00:32;;;;;;;15.82;3.40;;;;;;;12.27;100.00;102760.94;5072220;28;20052;-29
2021/11/19 00:03:00;;;;;;;13.73;3.80;;;;;;;12.27;100.00;102757.28;5071910;28;20044;-29
2021/11/19 00:05:30;;;;;;;22.33;4.15;;;;;;;12.28;100.00;102764.56;5071625;28;20041;-31
2021/11/19 00:07:59;;;;;;;9.80;3.10;;;;;;;12.29;100.00;102757.88;5071568;28;20044;-32
2021/11/19 00:10:27;;;;;;;12.43;3.50;;;;;;;12.27;100.00;102749.75;5072037;28;20557;-34
2021/11/19 00:12:57;;;;;;;13.13;3.40;;;;;;;12.28;100.00;102753.38;5071232;28;20412;-33
2021/11/19 00:15:25;;;;;;;12.40;3.53;;;;;;;12.28;100.00;102750.59;5071695;28;20382;-29
2021/11/19 00:17:53;;;;;;;13.50;3.15;;;;;;;12.27;100.00;102754.50;5070917;28;20520;-31
2021/11/19 00:20:28;;;;;;;19.38;4.70;;;;;;;12.27;100.00;102766.53;5071772;28;20045;-28
2021/11/19 00:22:57;;;;;;;15.32;3.33;;;;;;;12.25;100.00;102756.72;5071616;28;20049;-29
2021/11/19 00:25:26;;;;;;;16.75;4.07;;;;;;;12.25;100.00;102757.56;5070131;28;20044;-32
2021/11/19 00:27:55;;;;;;;13.57;3.05;;;;;;;12.23;100.00;102754.16;5071417;28;20075;-30
2021/11/19 00:30:27;;;;;;;14.50;3.78;;;;;;;12.24;100.00;102744.66;5071601;28;20052;-31
2021/11/19 00:32:54;;;;;;;;;;;;;;;12.16;100.00;102739.56;5070209;28;20101;-30
2021/11/19 00:35:23;;;;;;;12.98;3.28;;;;;;;12.14;100.00;102750.16;5071369;28;19985;-30
2021/11/19 00:37:53;;;;;;;17.00;3.40;;;;;;;12.17;100.00;102746.00;5071508;28;20482;-30
2021/11/19 00:40:32;;;;;;;15.52;3.22;;;;;;;12.14;100.00;102741.78;5070817;28;20053;-30
2021/11/19 00:43:00;;;;;;;19.65;4.00;;;;;;;12.16;100.00;102744.31;5060335;28;20040;-29
2021/11/19 00:45:30;;;;;;;11.07;3.15;;;;;;;12.16;100.00;102736.75;5071162;28;20559;-32
2021/11/19 00:47:59;;;;;;;12.73;3.03;;;;;;;12.16;100.00;102733.13;5070747;28;20501;-30
2021/11/19 00:50:32;;;;;;;13.45;3.35;;;;;;;12.14;100.00;102722.19;5071286;28;20044;-28
2021/11/19 00:53:00;;;;;;;14.90;3.45;;;;;;;12.13;100.00;102726.09;5070673;28;20046;-30
2021/11/19 00:55:29;;;;;;;14.02;3.70;;;;;;;12.11;100.00;102719.91;5071024;28;20105;-31
2021/11/19 00:57:57;;;;;;;16.25;4.07;;;;;;;12.12;100.00;102726.34;5069965;28;20048;-31
2021/11/19 01:00:29;;;;;;;15.75;3.67;;;;;;;12.11;100.00;102728.31;5070457;28;20129;-29
2021/11/19 01:02:59;;;;;;;17.83;3.72;;;;;;;12.13;100.00;102733.63;5069921;28;20084;-31
2021/11/19 01:05:27;;;;;;;15.30;3.60;;;;;;;12.11;100.00;102730.25;5070938;28;20044;-32
2021/11/19 01:07:55;;;;;;;15.75;3.30;;;;;;;12.12;100.00;102741.19;5069159;28;20048;-30
2021/11/19 01:10:27;;;;;;;13.55;3.00;;;;;;;12.11;100.00;102733.91;5069480;28;20076;-30
2021/11/19 01:12:56;;;;;;;11.63;3.13;;;;;;;12.08;100.00;102740.88;5069937;28;20110;-30
2021/11/19 01:15:28;;;;;;;16.33;3.38;;;;;;;12.09;100.00;102730.53;5069845;28;20049;-31
2021/11/19 01:17:58;;;;;;;;;;;;;;;12.04;100.00;102728.50;5071682;28;20119;-29
2021/11/19 01:20:35;;;;;;;10.18;3.00;;;;;;;12.01;100.00;102743.03;5069125;28;20426;-29
2021/11/19 01:23:10;;;;;;;13.07;3.25;;;;;;;12.04;100.00;102738.84;5060880;28;20052;-29
2021/11/19 01:25:41;;;;;;;12.50;3.17;;;;;;;12.04;100.00;102744.44;5070892;28;20048;-28
2021/11/19 01:28:11;;;;;;;16.20;2.95;;;;;;;12.03;100.00;102742.75;5063405;28;20448;-30
2021/11/19 01:30:43;;;;;;;15.45;3.80;;;;;;;12.03;100.00;102749.19;5074648;28;20043;-30
2021/11/19 01:33:11;;;;;;;;;;;;;;;11.97;100.00;102747.47;5074176;28;20052;-30
2021/11/19 01:35:59;;;;;;;7.72;2.70;;;;;;;11.93;100.00;102737.91;5074526;28;19927;-31
2021/11/19 01:38:42;;;;;;;13.05;3.20;;;;;;;11.96;100.00;102734.59;5064671;28;20127;-30
2021/11/19 01:41:32;;;;;;;13.40;3.25;;;;;;;11.97;100.00;102741.88;5074773;28;20043;-29
2021/11/19 01:44:01;;;;;;;;;;;;;;;11.92;100.00;102747.41;5074790;28;20063;-30
2021/11/19 01:46:32;;;;;;;9.80;2.95;;;;;;;11.91;100.00;102725.28;5072108;28;20325;-30
2021/11/19 01:49:01;;;;;;;14.75;4.03;;;;;;;11.94;100.00;102734.00;5073496;28;20060;-30
2021/11/19 01:51:38;;;;;;;16.42;3.28;;;;;;;11.94;100.00;102728.41;5072330;28;20098;-30
2021/11/19 01:54:10;;;;;;;16.67;3.67;;;;;;;11.95;100.00;102737.66;5075076;28;20131;-29
2021/11/19 01:56:43;;;;;;;15.95;4.22;;;;;;;11.96;100.00;102742.97;5072646;28;20044;-30
2021/11/19 01:59:19;;;;;;;15.98;4.30;;;;;;;11.97;100.00;102729.84;5063188;28;20040;-30
2021/11/19 02:01:52;;;;;;;17.77;3.83;;;;;;;11.96;100.00;102737.38;5072780;28;20493;-32
2021/11/19 02:04:26;;;;;;;17.05;3.70;;;;;;;11.95;100.00;102737.66;5062383;28;20131;-30
2021/11/19 02:07:00;;;;;;;16.52;4.03;;;;;;;11.93;100.00;102726.72;5074079;28;20094;-30
2021/11/19 02:09:59;;;;;;;16.80;3.42;;;;;;;11.93;100.00;102729.50;5070978;28;20137;-29
2021/11/19 02:12:35;;;;;;;15.50;3.80;;;;;;;11.95;100.00;102734.84;5073651;28;20078;-29
2021/11/19 02:15:10;;;;;;;15.85;4.30;;;;;;;11.97;100.00;102730.69;5072995;28;20044;-32
2021/11/19 02:17:41;;;;;;;13.48;3.72;;;;;;;11.96;100.00;102723.41;5071889;28;20068;-30
2021/11/19 02:20:11;;;;;;;19.15;4.50;;;;;;;11.93;100.00;102726.72;5074332;28;20052;-30
2021/11/19 02:22:46;;;;;;;13.63;4.20;;;;;;;11.93;100.00;102732.31;5072339;28;20421;-29
2021/11/19 02:25:22;;;;;;;16.85;4.55;;;;;;;11.92;100.00;102727.81;5072210;28;20413;-29
2021/11/19 02:27:53;;;;;;;15.10;4.43;;;;;;;11.92;100.00;102736.22;5072356;28;20041;-29
2021/11/19 02:30:26;;;;;;;16.85;5.07;;;;;;;11.93;100.00;102732.31;5073990;28;20045;-28
2021/11/19 02:33:00;;;;;;;20.17;4.47;;;;;;;11.92;100.00;102733.41;5071578;28;20515;-29
2021/11/19 02:35:33;;;;;;;22.42;4.97;;;;;;;11.93;100.00;102737.06;5072506;28;20045;-29
2021/11/19 02:38:07;;;;;;;15.57;4.95;;;;;;;11.91;100.00;102740.13;5073495;28;20493;-29
2021/11/19 02:40:38;;;;;;;12.90;4.22;;;;;;;11.90;100.00;102738.44;5061964;28;20052;-31
2021/11/19 02:43:10;;;;;;;12.45;4.22;;;;;;;11.90;100.00;102738.44;5073550;28;20114;-29
2021/11/19 02:45:41;;;;;;;12.00;3.65;;;;;;;11.90;100.00;102752.41;5071752;28;20109;-30
2021/11/19 02:48:13;;;;;;;12.23;3.60;;;;;;;11.89;100.00;102735.88;5071953;28;20409;-30
2021/11/19 02:50:42;;;;;;;17.48;4.25;;;;;;;11.89;100.00;102745.13;5073600;28;20044;-30
2021/11/19 02:53:12;;;;;;;14.88;4.60;;;;;;;11.89;100.00;102744.28;5072823;28;20072;-30
2021/11/19 02:55:44;;;;;;;16.80;3.65;;;;;;;11.91;100.00;102742.91;5072606;28;20053;-30
2021/11/19 02:58:17;;;;;;;13.10;3.50;;;;;;;11.91;100.00;102744.88;5071827;28;20094;-29
2021/11/19 03:00:51;;;;;;;16.90;3.95;;;;;;;11.92;100.00;102750.22;5068155;28;20143;-29
2021/11/19 03:03:21;;;;;;;10.93;3.95;;;;;;;11.92;100.00;102750.22;5071784;28;20098;-29
2021/11/19 03:05:49;;;;;;;14.77;3.63;;;;;;;11.93;100.00;102745.47;5073303;28;20045;-29
2021/11/19 03:08:19;;;;;;;11.95;3.53;;;;;;;11.93;100.00;102742.66;5071539;28;20048;-31
2021/11/19 03:10:55;;;;;;;13.25;3.35;;;;;;;11.94;100.00;102744.34;5071717;28;20068;-30
2021/11/19 03:13:26;;;;;;;17.33;4.22;;;;;;;11.95;100.00;102746.88;5073237;28;20040;-31
2021/11/19 03:15:54;;;;;;;13.68;3.67;;;;;;;11.93;100.00;102754.69;5072622;28;20451;-29
2021/11/19 03:18:26;;;;;;;12.90;3.45;;;;;;;11.95;100.00;102746.88;5071435;28;20044;-29
2021/11/19 03:20:57;;;;;;;16.10;3.85;;;;;;;11.95;100.00;102734.84;5072356;28;20056;-29
2021/11/19 03:23:29;;;;;;;12.65;3.42;;;;;;;11.97;100.00;102739.09;5072721;28;20041;-29
2021/11/19 03:26:00;;;;;;;14.98;3.80;;;;;;;11.97;100.00;102736.28;5071685;28;20136;-28
2021/11/19 03:28:30;;;;;;;17.60;3.75;;;;;;;11.97;100.00;102744.69;5072614;28;20048;-29
2021/11/19 03:31:01;;;;;;;10.10;3.08;;;;;;;12.00;100.00;102746.06;5072339;28;20497;-29
2021/11/19 03:33:32;;;;;;;15.40;3.70;;;;;;;12.01;100.00;102737.41;5071222;28;20842;-28
2021/11/19 03:36:02;;;;;;;17.90;3.85;;;;;;;12.01;100.00;102731.81;5072081;28;20071;-28
2021/11/19 03:38:33;;;;;;;13.32;3.50;;;;;;;12.01;100.00;102734.63;5071387;28;20501;-29
2021/11/19 03:41:03;;;;;;;16.85;3.88;;;;;;;12.00;100.00;102737.69;5072491;28;20570;-32
2021/11/19 03:43:36;;;;;;;13.38;3.42;;;;;;;12.00;100.00;102734.88;5070618;28;20040;-30
2021/11/19 03:46:13;;;;;;;16.80;4.35;;;;;;;11.98;100.00;102737.13;5070967;28;20050;-29
2021/11/19 03:48:42;;;;;;;13.07;4.43;;;;;;;11.98;100.00;102737.13;5072524;28;20056;-31
2021/11/19 03:51:15;;;;;;;17.55;4.90;;;;;;;12.00;100.00;102743.28;5070059;28;20063;-30
2021/11/19 03:53:45;;;;;;;17.38;4.90;;;;;;;11.98;100.00;102737.97;5071258;28;20565;-29
2021/11/19 03:56:13;;;;;;;15.43;4.43;;;;;;;12.00;100.00;102744.13;5070294;28;20501;-30
2021/11/19 03:58:44;;;;;;;11.93;4.43;;;;;;;12.00;100.00;102744.13;5071853;28;20122;-32
2021/11/19 04:01:15;;;;;;;15.85;5.90;;;;;;;12.02;100.00;102750.31;5070634;28;20036;-33
2021/11/19 04:03:46;;;;;;;19.02;6.05;;;;;;;12.03;100.00;102749.19;5071671;28;20105;-30
2021/11/19 04:06:15;;;;;;;16.85;5.57;;;;;;;12.04;100.00;102744.44;5071860;28;20051;-33
2021/11/19 04:08:45;;;;;;;14.23;5.53;;;;;;;12.06;100.00;102753.44;5070597;28;20044;-32
2021/11/19 04:11:14;;;;;;;17.98;5.10;;;;;;;12.07;100.00;102753.16;5069601;28;20036;-34
2021/11/19 04:13:42;;;;;;;15.57;5.30;;;;;;;12.08;100.00;102749.25;5072152;28;20066;-31
2021/11/19 04:16:14;;;;;;;15.20;5.22;;;;;;;12.10;100.00;102748.16;5070117;28;20097;-30
2021/11/19 04:18:43;;;;;;;17.17;5.72;;;;;;;12.08;100.00;102749.25;5071434;28;20045;-30
2021/11/19 04:21:12;;;;;;;15.60;5.05;;;;;;;12.10;100.00;102745.34;5071539;28;20425;-29
2021/11/19 04:23:41;;;;;;;17.80;4.93;;;;;;;12.09;100.00;102747.31;5071674;28;20048;-31
2021/11/19 04:26:12;;;;;;;15.27;5.20;;;;;;;12.10;100.00;102753.75;5069783;28;20052;-29
2021/11/19 04:28:40;;;;;;;17.25;5.25;;;;;;;12.08;100.00;102754.00;5067073;28;20060;-30
2021/11/19 04:31:21;;;;;;;16.35;4.53;;;;;;;12.06;100.00;102759.03;5070740;28;20588;-29
2021/11/19 04:33:51;;;;;;;20.13;4.75;;;;;;;12.06;100.00;102759.88;5070250;28;20489;-30
2021/11/19 04:36:19;;;;;;;17.77;4.47;;;;;;;12.07;100.00;102755.13;5070028;28;20052;-29
2021/11/19 04:38:48;;;;;;;17.30;4.93;;;;;;;12.10;100.00;102753.75;5070796;28;20404;-30
2021/11/19 04:41:19;;;;;;;17.60;4.45;;;;;;;12.12;100.00;102745.94;5070011;28;20058;-30
2021/11/19 04:43:47;;;;;;;14.23;4.10;;;;;;;12.11;100.00;102744.25;5071586;28;20044;-29
2021/11/19 04:46:16;;;;;;;15.40;4.40;;;;;;;12.12;100.00;102757.97;5070925;28;20082;-30
2021/11/19 04:48:44;;;;;;;15.10;3.83;;;;;;;12.12;100.00;102751.53;5069708;28;20599;-31
2021/11/19 04:51:23;;;;;;;19.13;4.00;;;;;;;12.14;100.00;102749.31;5069969;28;20581;-29
2021/11/19 04:53:52;;;;;;;16.45;4.03;;;;;;;12.14;100.00;102752.13;5069352;28;20098;-30
2021/11/19 04:56:22;;;;;;;14.25;3.35;;;;;;;12.16;100.00;102752.72;5070457;28;20052;-30
2021/11/19 04:58:52;;;;;;;11.67;3.00;;;;;;;12.14;100.00;102743.72;5071123;28;20055;-30
2021/11/19 05:01:23;;;;;;;16.40;3.55;;;;;;;12.14;100.00;102741.78;5068174;28;20049;-31
2021/11/19 05:04:01;;;;;;;10.13;3.03;;;;;;;12.14;100.00;102738.97;5071179;28;20516;-31
2021/11/19 05:06:30;;;;;;;12.90;3.00;;;;;;;12.17;100.00;102743.22;5070747;28;20143;-30
2021/11/19 05:09:00;;;;;;;11.90;3.15;;;;;;;12.16;100.00;102741.50;5069694;28;20527;-30
2021/11/19 05:11:33;;;;;;;13.45;2.80;;;;;;;12.17;100.00;102735.66;5069434;28;20075;-30
2021/11/19 05:14:05;;;;;;;12.35;2.63;;;;;;;12.19;100.00;102741.81;5061554;28;20481;-30
2021/11/19 05:16:35;;;;;;;11.90;2.92;;;;;;;12.18;100.00;102733.69;5069699;28;20420;-30
2021/11/19 05:19:04;;;;;;;14.27;3.47;;;;;;;12.20;100.00;102743.50;5069555;28;20421;-30
2021/11/19 05:21:36;;;;;;;15.27;2.95;;;;;;;12.18;100.00;102737.34;5069026;28;20199;-29
2021/11/19 05:24:06;;;;;;;16.17;3.30;;;;;;;12.18;100.00;102745.75;5069165;28;20048;-29
2021/11/19 05:26:37;;;;;;;12.88;3.20;;;;;;;12.20;100.00;102742.66;5071063;28;20617;-29
2021/11/19 05:29:06;;;;;;;16.90;3.05;;;;;;;12.20;100.00;102740.69;5067051;28;20121;-29
2021/11/19 05:31:35;;;;;;;12.57;3.00;;;;;;;12.21;100.00;102735.94;5070829;28;20410;-30
2021/11/19 05:34:08;;;;;;;15.48;3.10;;;;;;;12.22;100.00;102743.22;5069249;28;20570;-29
2021/11/19 05:36:36;;;;;;;15.95;3.63;;;;;;;12.23;100.00;102733.72;5070236;28;20576;-31
2021/11/19 05:39:06;;;;;;;15.35;3.20;;;;;;;12.24;100.00;102743.81;5068884;28;20044;-30
2021/11/19 05:41:39;;;;;;;11.77;2.85;;;;;;;12.27;100.00;102737.69;5069034;28;20048;-32
2021/11/19 05:44:08;;;;;;;17.92;3.65;;;;;;;12.28;100.00;102733.78;5066815;28;20161;-33
2021/11/19 05:46:46;;;;;;;13.93;3.25;;;;;;;12.29;100.00;102741.06;5067069;28;20044;-30
2021/11/19 05:49:19;;;;;;;11.85;2.78;;;;;;;12.30;100.00;102738.00;5066860;28;20095;-30
2021/11/19 05:51:52;;;;;;;12.70;3.35;;;;;;;12.30;100.00;102738.00;5068786;28;20074;-32
2021/11/19 05:54:23;;;;;;;9.40;2.10;;;;;;;12.31;100.00;102724.88;5068481;28;20090;-30
2021/11/19 05:56:54;;;;;;;;;;;;;;;12.27;100.00;102737.69;5068876;28;20135;-29
2021/11/19 05:59:23;;;;;;;13.57;2.65;;;;;;;12.25;100.00;102734.31;5068604;28;19920;-32
2021/11/19 06:02:12;;;;;;;15.32;2.83;;;;;;;12.26;100.00;102736.00;5070876;28;20052;-31
2021/11/19 06:05:19;;;;;;;15.20;2.40;;;;;;;12.27;100.00;102737.69;5052353;28;20048;-29
2021/11/19 06:07:50;;;;;;;13.02;2.70;;;;;;;12.29;100.00;102741.06;5070427;28;20484;-30
2021/11/19 06:10:24;;;;;;;17.02;2.63;;;;;;;12.29;100.00;102735.47;5069773;28;20110;-30
2021/11/19 06:12:58;;;;;;;10.30;2.30;;;;;;;12.32;100.00;102740.56;5070485;28;20101;-30
2021/11/19 06:15:29;;;;;;;13.32;2.50;;;;;;;12.33;100.00;102747.84;5072960;28;20517;-32
2021/11/19 06:18:01;;;;;;;8.98;2.20;;;;;;;12.34;100.00;102749.53;5073903;28;20058;-30
2021/11/19 06:20:31;;;;;;;11.60;2.40;;;;;;;12.35;100.00;102759.63;5073750;28;20405;-29
2021/11/19 06:23:11;;;;;;;9.25;2.17;;;;;;;12.35;100.00;102765.22;5074237;28;20052;-28
2021/11/19 06:25:41;;;;;;;11.63;2.80;;;;;;;12.37;100.00;102760.22;5071964;28;20056;-30
2021/11/19 06:28:14;;;;;;;11.95;2.50;;;;;;;12.38;100.00;102754.34;5072705;28;20078;-29
2021/11/19 06:30:42;;;;;;;15.43;2.40;;;;;;;12.39;100.00;102755.16;5071794;28;20048;-31
2021/11/19 06:33:10;;;;;;;14.00;2.63;;;;;;;12.40;100.00;102759.66;5072433;28;20075;-33
2021/11/19 06:35:38;;;;;;;12.60;2.10;;;;;;;12.40;100.00;102760.50;5073695;28;20150;-28
2021/11/19 06:38:08;;;;;;;12.63;2.72;;;;;;;12.41;100.00;102767.78;5072112;28;20048;-29
2021/11/19 06:40:41;;;;;;;11.30;2.35;;;;;;;12.41;100.00;102766.94;5073709;28;20048;-33
2021/11/19 06:43:17;;;;;;;10.55;2.03;;;;;;;12.41;100.00;102772.53;5071012;28;20420;-31
2021/11/19 06:46:03;;;;;;;9.13;2.35;;;;;;;12.40;100.00;102777.28;5072797;28;20126;-30
2021/11/19 06:48:42;;;;;;;10.50;1.98;;;;;;;12.41;100.00;102784.59;5072259;28;20051;-31
2021/11/19 06:51:23;;;;;;;13.20;2.30;;;;;;;12.41;100.00;102781.78;5071950;28;20156;-30
2021/11/19 06:54:21;;;;;;;13.02;2.08;;;;;;;12.40;100.00;102788.50;5064694;28;20052;-30
2021/11/19 06:57:08;;;;;;;9.65;2.00;;;;;;;12.41;100.00;102778.13;5071285;28;20102;-30
2021/11/19 06:59:42;;;;;;;11.82;2.25;;;;;;;12.40;100.00;102777.28;5071318;28;20563;-28
2021/11/19 07:02:12;;;;;;;12.52;2.30;;;;;;;12.41;100.00;102780.94;5068387;28;20489;-29
2021/11/19 07:04:44;;;;;;;12.40;2.70;;;;;;;12.39;100.00;102781.19;5072960;28;20497;-30
2021/11/19 07:07:13;;;;;;;11.27;2.30;;;;;;;12.39;100.00;102777.56;5072218;28;20056;-30
2021/11/19 07:09:42;;;;;;;10.30;2.15;;;;;;;12.39;100.00;102785.97;5070989;28;20052;-30
2021/11/19 07:12:29;;;;;;;11.65;2.10;;;;;;;12.35;100.00;102782.88;5071538;28;20669;-29
2021/11/19 07:15:06;;;;;;;10.25;1.80;;;;;;;12.35;100.00;102787.63;5072034;28;20052;-28
2021/11/19 07:17:34;;;;;;;12.60;2.13;;;;;;;12.31;100.00;102787.28;5070832;28;20524;-29
2021/11/19 07:20:06;;;;;;;14.77;2.72;;;;;;;12.30;100.00;102781.97;5070452;28;20098;-29
2021/11/19 07:22:35;;;;;;;12.70;2.08;;;;;;;12.26;100.00;102789.19;5070807;28;20555;-29
2021/11/19 07:25:09;;;;;;;13.82;2.38;;;;;;;12.24;100.00;102786.66;5072119;28;20040;-30
2021/11/19 07:27:38;;;;;;;14.18;2.25;;;;;;;12.21;100.00;102789.97;5072167;28;20378;-30
2021/11/19 07:30:14;;;;;;;9.40;1.70;;;;;;;12.17;100.00;102791.63;5060555;28;20135;-35
2021/11/19 07:33:01;;;;;;;10.82;2.50;;;;;;;12.14;100.00;102788.50;5071368;28;20054;-30
2021/11/19 07:35:43;;;;;;;12.07;2.13;;;;;;;12.11;100.00;102801.06;5071016;28;20056;-30
2021/11/19 07:38:29;;;;;;;12.27;2.45;;;;;;;12.10;100.00;102804.13;5070039;28;20040;-30
2021/11/19 07:41:17;;;;;;;10.93;2.15;;;;;;;12.08;100.00;102808.03;5070643;28;20037;-30
2021/11/19 07:44:14;;;;;;;13.20;2.20;;;;;;;12.04;100.00;102809.66;5033085;28;20072;-30
2021/11/19 07:46:54;;;;;;;12.23;2.10;;;;;;;12.04;100.00;102817.19;5069975;28;20405;-31
2021/11/19 07:49:23;;;;;;;14.95;2.58;;;;;;;12.04;100.00;102820.00;5069331;28;20059;-30
2021/11/19 07:51:55;;;;;;;9.30;1.92;;;;;;;12.03;100.00;102813.56;5069675;28;20420;-33
2021/11/19 07:54:24;;;;;;;10.38;2.33;;;;;;;12.03;100.00;102813.56;5071157;28;20048;-29
2021/11/19 07:56:52;;;;;;;13.15;2.40;;;;;;;12.02;100.00;102820.25;5069027;28;20485;-30
2021/11/19 07:59:26;;;;;;;11.93;2.08;;;;;;;12.03;100.00;102809.91;5069459;28;20045;-31
2021/11/19 08:01:59;;;;;;;8.52;1.90;;;;;;;12.02;100.00;102816.63;5069615;28;20063;-30
2021/11/19 08:04:30;;;;;;;13.88;2.47;;;;;;;12.00;100.00;102822.47;5069588;28;20477;-30
2021/11/19 08:07:03;;;;;;;9.60;1.90;;;;;;;12.00;100.00;102825.28;5069277;28;20052;-31
2021/11/19 08:09:49;;;;;;;11.05;2.45;;;;;;;12.01;100.00;102826.97;5062091;28;20507;-31
2021/11/19 08:12:38;;;;;;;12.38;2.00;;;;;;;12.07;100.00;102822.28;5070263;28;20072;-30
2021/11/19 08:15:16;;;;;;;10.73;2.17;;;;;;;12.14;100.00;102817.34;5069642;28;20059;-30
2021/11/19 08:17:49;;;;;;;13.68;2.08;;;;;;;12.25;100.00;102815.50;5069026;28;20100;-29
2021/11/19 08:20:28;;;;;;;7.70;1.88;;;;;;;12.32;100.00;102816.13;5069109;28;20044;-30
2021/11/19 08:22:56;;;;;;;9.65;2.00;;;;;;;12.40;100.00;102819.28;5070610;28;20036;-30
2021/11/19 08:25:24;;;;;;;10.57;1.90;;;;;;;12.48;100.00;102818.00;5069712;28;20052;-30
2021/11/19 08:27:55;;;;;;;11.35;2.13;;;;;;;12.60;100.00;102834.63;5070611;28;20049;-32
2021/11/19 08:30:28;;;;;;;8.63;1.70;;;;;;;12.70;100.00;102838.38;5069638;28;20770;-32
2021/11/19 08:32:57;;;;;;;12.00;2.50;;;;;;;12.83;100.00;102831.47;5070100;28;20446;-31
2021/11/19 08:35:26;;;;;;;9.10;1.80;;;;;;;12.99;100.00;102832.50;5069926;28;20048;-34
2021/11/19 08:37:55;;;;;;;13.63;2.28;;;;;;;13.20;100.00;102827.88;5069705;28;20033;-30
2021/11/19 08:40:26;;;;;;;7.88;1.60;;;;;;;13.43;100.00;102824.69;5069804;28;20055;-31
2021/11/19 08:42:55;;;;;;;12.65;1.77;;;;;;;13.68;100.00;102835.22;5070352;28;20051;-31
2021/11/19 08:45:24;;;;;;;8.55;1.65;;;;;;;13.92;100.00;102836.50;5068905;28;20067;-30
2021/11/19 08:47:57;;;;;;;11.63;2.10;;;;;;;14.19;100.00;102830.69;5070494;28;20409;-33
2021/11/19 08:50:30;;;;;;;8.75;1.75;;;;;;;14.51;100.00;102836.16;5069664;28;20461;-31
2021/11/19 08:53:00;;;;;;;6.40;1.60;;;;;;;14.83;100.00;102838.72;5059527;28;20079;-32
2021/11/19 08:55:29;;;;;;;11.98;2.15;;;;;;;15.10;100.00;102839.31;5069759;28;20072;-32
2021/11/19 08:57:58;;;;;;;9.40;1.70;;;;;;;15.46;100.00;102831.66;5069962;28;20465;-32
2021/11/19 09:00:29;;;;;;;10.93;1.63;;;;;;;15.84;100.00;102841.44;5069196;28;20063;-31
2021/11/19 09:02:59;;;;;;;8.95;2.22;;;;;;;16.09;100.00;102837.69;5069085;28;20052;-33
2021/11/19 09:05:30;;;;;;;9.98;1.80;;;;;;;16.34;100.00;102836.75;5069359;28;20048;-32
2021/11/19 09:07:58;;;;;;;10.85;1.77;;;;;;;16.60;100.00;102840.22;5066126;28;20045;-32
2021/11/19 09:10:26;;;;;;;8.95;1.50;;;;;;;16.87;100.00;102846.28;5069914;28;20143;-32
2021/11/19 09:12:54;;;;;;;8.93;1.58;;;;;;;17.11;100.00;102851.16;5069127;28;20037;-30
2021/11/19 09:15:23;;;;;;;7.78;1.73;;;;;;;17.25;100.00;102840.88;5069585;28;20586;-33
2021/11/19 09:18:04;;;;;;;8.10;1.73;;;;;;;17.39;100.00;102849.50;5069922;28;20048;-32
2021/11/19 09:20:45;;;;;;;6.75;1.48;;;;;;;17.57;100.00;102848.78;5069258;28;20117;-32
2021/11/19 09:23:17;;;;;;;10.02;1.95;;;;;;;17.80;100.00;102845.13;5070406;28;20505;-31
2021/11/19 09:25:47;;;;;;;6.53;1.40;;;;;;;17.98;97.49;102851.16;5070424;28;20135;-30
2021/11/19 09:28:21;;;;;;;8.52;1.90;;;;;;;18.22;96.98;102849.13;5070270;28;20623;-29
2021/11/19 09:30:54;;;;;;;5.50;1.50;;;;;;;18.28;94.27;102847.94;5070989;28;20046;-29
2021/11/19 09:33:23;;;;;;;10.25;2.00;;;;;;;18.09;92.79;102847.06;5070545;28;20040;-31
2021/11/19 09:35:56;;;;;;;12.18;2.38;;;;;;;17.93;92.58;102863.38;5070339;28;20048;-29
2021/11/19 09:38:26;;;;;;;8.10;1.75;;;;;;;17.79;91.59;102863.22;5070311;28;20485;-31
2021/11/19 09:41:00;;;;;;;10.23;1.63;;;;;;;17.74;92.44;102865.28;5070260;28;20045;-30
2021/11/19 09:43:38;;;;;;;7.65;1.27;;;;;;;17.75;92.60;102872.59;5070841;28;20044;-31
2021/11/19 09:46:41;;;;;;;10.25;1.60;;;;;;;17.84;91.14;102859.50;5059717;28;20075;-30
2021/11/19 09:49:12;;;;;;;;;;;;;;;17.86;88.93;102860.88;5073686;28;20032;-36
2021/11/19 09:52:14;;;;;;;9.77;1.70;;;;;;;18.09;92.03;102861.19;5074746;28;20353;-32
2021/11/19 09:55:23;;;;;;;7.35;1.38;;;;;;;18.22;89.53;102864.13;5071907;28;20067;-32
2021/11/19 09:58:19;;;;;;;12.73;2.13;;;;;;;18.14;88.13;102858.31;5073337;28;20048;-30
2021/11/19 10:01:08;;;;;;;10.00;1.70;;;;;;;18.10;89.46;102868.53;5073089;28;20048;-31
2021/11/19 10:04:17;;;;;;;7.10;1.88;;;;;;;18.17;87.40;102864.19;5065313;28;20068;-31
2021/11/19 10:06:53;;;;;;;9.15;1.83;;;;;;;18.22;88.09;102861.28;5063119;28;20508;-31
2021/11/19 10:09:30;;;;;;;8.77;1.50;;;;;;;18.24;87.19;102856.19;5073567;28;20122;-32
2021/11/19 10:12:14;;;;;;;8.95;2.03;;;;;;;18.39;85.81;102857.09;5063478;28;20051;-30
2021/11/19 10:14:49;;;;;;;7.55;1.70;;;;;;;18.65;86.34;102860.44;5073823;28;20067;-33
2021/11/19 10:17:37;;;;;;;9.98;2.10;;;;;;;18.92;84.63;102852.13;5073588;28;20044;-31
2021/11/19 10:20:11;;;;;;;7.95;2.00;;;;;;;18.98;83.34;102847.22;5073730;28;20110;-32
2021/11/19 10:22:44;;;;;;;9.57;1.70;;;;;;;19.08;83.11;102859.19;5073782;28;20102;-33
2021/11/19 10:25:18;;;;;;;6.97;1.65;;;;;;;19.25;82.57;102861.47;5073516;28;20049;-32
2021/11/19 10:27:50;;;;;;;8.80;1.65;;;;;;;19.27;80.31;102853.50;5073841;28;20098;-31
2021/11/19 10:30:28;;;;;;;9.98;1.88;;;;;;;19.10;81.10;102853.25;5073248;28;20453;-31
2021/11/19 10:33:00;;;;;;;8.38;1.45;;;;;;;19.09;80.88;102860.03;5073905;28;20041;-32
2021/11/19 10:35:58;;;;;;;9.45;1.80;;;;;;;18.96;77.99;102863.66;5073649;28;20051;-32
2021/11/19 10:39:04;;;;;;;9.13;1.83;;;;;;;18.84;80.03;102870.63;5072977;28;20053;-34
2021/11/19 10:42:19;;;;;;;7.03;1.52;;;;;;;18.81;81.46;102871.22;5074123;28;20060;-33
2021/11/19 10:45:25;;;;;;;11.55;2.10;;;;;;;18.81;79.96;102868.41;5010752;28;20498;-33
2021/11/19 10:48:17;;;;;;;9.45;1.95;;;;;;;18.57;80.92;102874.13;5011324;28;20049;-34
2021/11/19 10:51:06;;;;;;;11.55;1.75;;;;;;;18.44;82.03;102874.00;5072752;28;20409;-33
2021/11/19 10:54:05;;;;;;;6.07;1.38;;;;;;;18.38;81.98;102878.06;5064128;28;20135;-31
2021/11/19 10:56:45;;;;;;;9.10;1.90;;;;;;;18.15;81.89;102877.78;5073182;28;20040;-31
2021/11/19 10:59:36;;;;;;;10.35;1.80;;;;;;;17.96;82.18;102864.75;5071285;28;20052;-37
2021/11/19 11:02:31;;;;;;;8.20;1.92;;;;;;;17.95;83.79;102865.88;5072223;28;20496;-32
2021/11/19 11:05:02;;;;;;;9.43;1.55;;;;;;;17.99;83.88;102875.41;5072344;28;20410;-32
2021/11/19 11:07:33;;;;;;;7.68;1.70;;;;;;;18.02;83.38;102886.97;5073362;28;20040;-30
2021/11/19 11:10:09;;;;;;;9.73;1.83;;;;;;;18.02;83.25;102877.66;5072578;28;20044;-32
2021/11/19 11:12:48;;;;;;;9.93;1.70;;;;;;;18.04;84.04;102870.56;5062274;28;20043;-31
2021/11/19 11:15:28;;;;;;;9.35;1.92;;;;;;;18.06;83.30;102876.75;5072781;28;20054;-32
2021/11/19 11:18:19;;;;;;;13.52;2.10;;;;;;;18.03;82.73;102876.50;5063955;28;20140;-34
2021/11/19 11:21:00;;;;;;;8.70;1.60;;;;;;;18.09;83.11;102875.31;5069152;28;20049;-33
2021/11/19 11:23:30;;;;;;;9.23;1.65;;;;;;;18.09;82.65;102878.97;5073026;28;20127;-31
2021/11/19 11:26:04;;;;;;;8.40;1.95;;;;;;;18.10;82.79;102869.38;5069003;28;20052;-29
2021/11/19 11:28:48;;;;;;;8.27;2.05;;;;;;;18.19;82.47;102867.53;5072896;28;20153;-31
2021/11/19 11:31:28;;;;;;;6.72;1.58;;;;;;;18.14;82.48;102872.44;5070810;28;20406;-32
2021/11/19 11:34:00;;;;;;;9.10;1.70;;;;;;;18.15;82.31;102871.28;5072076;28;20044;-32
2021/11/19 11:36:36;;;;;;;10.63;2.00;;;;;;;18.15;82.58;102874.13;5072246;28;20482;-32
2021/11/19 11:39:10;;;;;;;11.35;1.73;;;;;;;18.17;82.90;102861.38;5072347;28;20055;-30
2021/11/19 11:41:54;;;;;;;6.90;1.48;;;;;;;18.12;82.04;102861.44;5071860;28;20052;-31
2021/11/19 11:44:35;;;;;;;7.60;1.90;;;;;;;18.02;82.56;102872.00;5072165;28;20067;-31
2021/11/19 11:47:07;;;;;;;10.48;1.90;;;;;;;17.90;82.62;102897.84;5063395;28;20428;-31